Time;durP1;ratioP1;P1;durP2;ratioP2;P2;SDS_P1;SDS_P2;PMS_P1;PMS_P2;Temp;Humidity;BMP_temperature;BMP_pressure;BME280_temperature;BME280_humidity;BME280_pressure;Samples;Min_cycle;Max_cycle;Signal;HPM_P1;HPM_P2
2022/06/09 00:01:42;;;;;;;20.73;4.25;;;;;;;;;;5037043;28;20671;-72
2022/06/09 00:04:10;;;;;;;14.98;4.47;;;;;;;;;;5033488;28;20560;-72
2022/06/09 00:06:48;;;;;;;19.92;5.43;;;;;;;;;;5034020;28;20201;-72
2022/06/09 00:09:14;;;;;;;16.27;5.30;;;;;;;;;;5033145;28;20181;-74
2022/06/09 00:11:42;;;;;;;19.13;5.03;;;;;;;;;;5045893;28;20225;-74
2022/06/09 00:14:08;;;;;;;21.10;3.95;;;;;;;;;;5039474;28;20201;-72
2022/06/09 00:16:35;;;;;;;18.33;4.78;;;;;;;;;;5041768;28;20267;-74
2022/06/09 00:19:00;;;;;;;13.85;4.10;;;;;;;;;;5038430;28;20698;-72
2022/06/09 00:21:25;;;;;;;18.70;5.78;;;;;;;;;;5038113;28;20321;-72
2022/06/09 00:23:51;;;;;;;18.55;5.63;;;;;;;;;;5039531;28;20593;-71
2022/06/09 00:26:16;;;;;;;21.20;4.30;;;;;;;;;;5040189;28;20208;-72
2022/06/09 00:28:42;;;;;;;16.23;4.90;;;;;;;;;;5048671;28;20173;-74
2022/06/09 00:31:07;;;;;;;18.08;4.45;;;;;;;;;;5049393;28;20598;-72
2022/06/09 00:33:32;;;;;;;28.05;5.75;;;;;;;;;;5044926;28;20187;-71
2022/06/09 00:35:58;;;;;;;15.35;4.70;;;;;;;;;;5049957;28;20679;-72
2022/06/09 00:38:23;;;;;;;12.93;4.20;;;;;;;;;;5041888;28;20212;-72
2022/06/09 00:40:48;;;;;;;18.52;5.63;;;;;;;;;;5048542;28;20173;-72
2022/06/09 00:43:13;;;;;;;16.73;4.63;;;;;;;;;;5047204;28;20186;-72
2022/06/09 00:45:43;;;;;;;17.42;4.75;;;;;;;;;;5043129;28;20208;-71
2022/06/09 00:48:17;;;;;;;13.25;4.35;;;;;;;;;;5044803;28;20174;-72
2022/06/09 00:50:42;;;;;;;17.88;5.18;;;;;;;;;;5043560;28;20615;-72
2022/06/09 00:53:12;;;;;;;14.88;4.32;;;;;;;;;;5045829;28;20249;-72
2022/06/09 00:55:38;;;;;;;17.23;4.72;;;;;;;;;;5044633;28;20201;-73
2022/06/09 00:58:06;;;;;;;12.02;4.15;;;;;;;;;;5046567;28;20181;-72
2022/06/09 01:00:35;;;;;;;17.73;5.65;;;;;;;;;;5043069;28;20178;-72
2022/06/09 01:03:01;;;;;;;11.50;4.30;;;;;;;;;;5035434;28;20631;-72
2022/06/09 01:05:27;;;;;;;12.32;4.32;;;;;;;;;;5046057;28;20221;-72
2022/06/09 01:07:54;;;;;;;14.38;5.13;;;;;;;;;;5047886;28;20181;-72
2022/06/09 01:10:19;;;;;;;14.82;5.03;;;;;;;;;;5052525;28;20263;-72
2022/06/09 01:12:45;;;;;;;19.58;6.72;;;;;;;;;;5042217;28;20178;-73
2022/06/09 01:15:15;;;;;;;13.07;5.10;;;;;;;;;;5051004;28;20194;-72
2022/06/09 01:18:01;;;;;;;14.13;4.82;;;;;;;;;;5046014;28;20184;-73
2022/06/09 01:20:39;;;;;;;15.43;5.82;;;;;;;;;;5044705;28;20211;-72
2022/06/09 01:23:07;;;;;;;16.52;5.32;;;;;;;;;;5043933;28;20272;-71
2022/06/09 01:25:32;;;;;;;12.20;4.97;;;;;;;;;;5042128;28;20208;-72
2022/06/09 01:28:25;;;;;;;15.77;5.43;;;;;;;;;;5047552;28;20170;-72
2022/06/09 01:30:56;;;;;;;12.05;4.90;;;;;;;;;;5043627;28;20193;-72
2022/06/09 01:33:27;;;;;;;15.82;5.63;;;;;;;;;;5045720;28;20185;-72
2022/06/09 01:36:11;;;;;;;18.35;5.63;;;;;;;;;;5040260;28;20293;-71
2022/06/09 01:38:43;;;;;;;12.02;4.80;;;;;;;;;;5041999;28;20174;-72
2022/06/09 01:41:08;;;;;;;9.18;3.83;;;;;;;;;;5043607;28;20182;-74
2022/06/09 01:43:34;;;;;;;11.68;4.40;;;;;;;;;;5040842;28;20239;-72
2022/06/09 01:46:04;;;;;;;10.18;4.03;;;;;;;;;;5048915;28;20683;-71
2022/06/09 01:48:30;;;;;;;12.18;4.20;;;;;;;;;;5041269;28;20177;-73
2022/06/09 01:50:58;;;;;;;7.32;3.33;;;;;;;;;;5044624;28;20174;-74
2022/06/09 01:53:28;;;;;;;8.10;3.30;;;;;;;;;;5046024;28;20573;-72
2022/06/09 01:56:17;;;;;;;12.80;4.60;;;;;;;;;;5048324;28;20205;-74
2022/06/09 01:58:48;;;;;;;9.10;3.85;;;;;;;;;;5043665;28;20240;-72
2022/06/09 02:01:14;;;;;;;9.35;3.45;;;;;;;;;;5044110;28;20677;-72
2022/06/09 02:03:41;;;;;;;8.15;2.90;;;;;;;;;;5047811;28;20191;-71
2022/06/09 02:06:08;;;;;;;12.35;3.20;;;;;;;;;;5044118;28;20197;-72
2022/06/09 02:08:35;;;;;;;6.22;3.00;;;;;;;;;;5030924;28;20190;-73
2022/06/09 02:11:04;;;;;;;7.45;3.03;;;;;;;;;;5041479;28;20181;-73
2022/06/09 02:13:31;;;;;;;6.38;2.60;;;;;;;;;;5039273;28;20235;-72
2022/06/09 02:16:01;;;;;;;8.00;3.70;;;;;;;;;;5038282;28;20209;-72
2022/06/09 02:18:27;;;;;;;10.13;3.63;;;;;;;;;;5040206;28;20201;-74
2022/06/09 02:20:55;;;;;;;10.90;3.97;;;;;;;;;;5045978;28;20186;-72
2022/06/09 02:23:21;;;;;;;5.47;3.00;;;;;;;;;;5041959;28;20178;-74
2022/06/09 02:25:46;;;;;;;10.82;3.30;;;;;;;;;;5041442;28;20214;-74
2022/06/09 02:28:11;;;;;;;8.07;2.80;;;;;;;;;;5038886;28;20166;-72
2022/06/09 02:30:37;;;;;;;7.40;3.10;;;;;;;;;;5045144;28;20204;-74
2022/06/09 02:33:02;;;;;;;9.95;3.03;;;;;;;;;;5032404;28;20183;-71
2022/06/09 02:35:28;;;;;;;9.95;3.28;;;;;;;;;;5038785;28;20193;-72
2022/06/09 02:37:53;;;;;;;8.90;3.60;;;;;;;;;;5043736;28;20190;-75
2022/06/09 02:40:18;;;;;;;7.85;2.88;;;;;;;;;;5042327;28;20253;-74
2022/06/09 02:42:44;;;;;;;7.53;3.33;;;;;;;;;;5044268;28;20189;-72
2022/06/09 02:45:09;;;;;;;5.03;3.20;;;;;;;;;;5042568;28;20189;-71
2022/06/09 02:47:35;;;;;;;8.45;3.33;;;;;;;;;;5046798;28;20479;-71
2022/06/09 02:50:00;;;;;;;6.78;3.17;;;;;;;;;;5043360;28;20578;-74
2022/06/09 02:52:26;;;;;;;8.18;3.13;;;;;;;;;;5050662;28;20525;-72
2022/06/09 02:54:51;;;;;;;5.80;2.63;;;;;;;;;;5035235;28;20611;-74
2022/06/09 02:57:16;;;;;;;9.93;3.25;;;;;;;;;;5051485;28;20695;-74
2022/06/09 02:59:42;;;;;;;8.23;2.88;;;;;;;;;;5044104;28;20206;-74
2022/06/09 03:02:07;;;;;;;5.75;3.17;;;;;;;;;;5047234;28;20564;-74
2022/06/09 03:04:32;;;;;;;8.85;3.30;;;;;;;;;;5043662;28;20182;-73
2022/06/09 03:06:57;;;;;;;7.43;3.40;;;;;;;;;;5051473;28;20228;-74
2022/06/09 03:09:23;;;;;;;6.15;2.80;;;;;;;;;;5043604;28;20256;-74
2022/06/09 03:11:48;;;;;;;10.65;4.10;;;;;;;;;;5041327;28;20189;-74
2022/06/09 03:14:14;;;;;;;8.55;4.05;;;;;;;;;;5043025;28;20181;-71
2022/06/09 03:16:39;;;;;;;6.25;2.97;;;;;;;;;;5040343;28;20740;-74
2022/06/09 03:19:05;;;;;;;7.55;3.03;;;;;;;;;;5041207;28;20711;-72
2022/06/09 03:21:31;;;;;;;8.32;3.60;;;;;;;;;;5051538;28;20170;-74
2022/06/09 03:23:58;;;;;;;11.90;4.38;;;;;;;;;;5037064;28;20510;-74
2022/06/09 03:26:23;;;;;;;15.30;3.47;;;;;;;;;;5043491;28;20251;-72
2022/06/09 03:28:48;;;;;;;10.50;3.28;;;;;;;;;;5039677;28;20174;-73
2022/06/09 03:31:13;;;;;;;4.95;3.28;;;;;;;;;;5048158;28;20213;-74
2022/06/09 03:33:38;;;;;;;8.40;2.90;;;;;;;;;;5039518;28;20178;-74
2022/06/09 03:36:04;;;;;;;9.40;3.10;;;;;;;;;;5033596;28;20198;-74
2022/06/09 03:38:29;;;;;;;10.30;3.35;;;;;;;;;;5037930;28;20581;-71
2022/06/09 03:40:54;;;;;;;7.57;3.25;;;;;;;;;;5045575;28;20686;-72
2022/06/09 03:43:20;;;;;;;7.35;3.20;;;;;;;;;;5044305;28;20188;-72
2022/06/09 03:45:45;;;;;;;6.80;3.03;;;;;;;;;;5045717;28;20702;-72
2022/06/09 03:48:10;;;;;;;8.85;3.92;;;;;;;;;;5048908;28;20209;-72
2022/06/09 03:50:35;;;;;;;9.43;3.42;;;;;;;;;;5052978;28;20256;-72
2022/06/09 03:53:01;;;;;;;10.35;3.28;;;;;;;;;;5052530;28;20169;-72
2022/06/09 03:55:26;;;;;;;4.97;2.78;;;;;;;;;;5052705;28;20296;-71
2022/06/09 03:57:51;;;;;;;9.18;2.70;;;;;;;;;;5050417;28;20786;-72
2022/06/09 04:00:21;;;;;;;19.13;3.90;;;;;;;;;;5042889;28;20185;-72
2022/06/09 04:02:46;;;;;;;10.07;3.22;;;;;;;;;;5045991;28;20234;-74
2022/06/09 04:05:13;;;;;;;7.35;2.63;;;;;;;;;;5047993;28;20201;-72
2022/06/09 04:07:38;;;;;;;9.60;4.15;;;;;;;;;;5048826;28;20193;-73
2022/06/09 04:10:03;;;;;;;6.95;3.00;;;;;;;;;;5053502;28;20177;-72
2022/06/09 04:12:29;;;;;;;8.70;2.50;;;;;;;;;;5050475;28;20209;-73
2022/06/09 04:14:54;;;;;;;5.28;2.40;;;;;;;;;;5047196;28;20189;-74
2022/06/09 04:17:19;;;;;;;7.22;2.70;;;;;;;;;;5049518;28;20862;-74
2022/06/09 04:19:45;;;;;;;5.88;2.40;;;;;;;;;;5046861;28;20184;-74
2022/06/09 04:22:10;;;;;;;10.10;2.97;;;;;;;;;;5053738;28;20180;-73
2022/06/09 04:24:35;;;;;;;4.30;2.38;;;;;;;;;;5050916;28;20679;-73
2022/06/09 04:27:01;;;;;;;5.70;1.77;;;;;;;;;;5052971;28;20213;-72
2022/06/09 04:29:27;;;;;;;4.05;1.60;;;;;;;;;;5050671;28;20556;-72
2022/06/09 04:31:52;;;;;;;6.60;1.55;;;;;;;;;;5045764;28;20178;-72
2022/06/09 04:34:18;;;;;;;4.05;1.85;;;;;;;;;;5032271;28;20682;-72
2022/06/09 04:36:43;;;;;;;5.28;1.40;;;;;;;;;;5043934;28;20578;-71
2022/06/09 04:39:08;;;;;;;5.30;1.85;;;;;;;;;;5041611;28;20217;-74
2022/06/09 04:41:34;;;;;;;4.57;1.40;;;;;;;;;;5044145;28;20205;-74
2022/06/09 04:43:59;;;;;;;8.55;1.48;;;;;;;;;;5042909;28;20553;-74
2022/06/09 04:46:25;;;;;;;3.95;1.60;;;;;;;;;;5044038;28;20205;-74
2022/06/09 04:48:50;;;;;;;9.40;1.83;;;;;;;;;;5044129;28;20257;-74
2022/06/09 04:51:17;;;;;;;5.93;1.75;;;;;;;;;;5039193;28;20608;-72
2022/06/09 04:53:43;;;;;;;3.60;1.30;;;;;;;;;;5036731;28;20239;-74
2022/06/09 04:56:09;;;;;;;3.10;1.30;;;;;;;;;;5049975;28;20287;-73
2022/06/09 04:58:34;;;;;;;6.30;2.08;;;;;;;;;;5036125;28;20186;-72
2022/06/09 05:00:59;;;;;;;4.70;1.23;;;;;;;;;;5040106;28;20189;-72
2022/06/09 05:03:24;;;;;;;2.45;1.23;;;;;;;;;;5043266;28;20198;-73
2022/06/09 05:05:50;;;;;;;3.50;2.15;;;;;;;;;;5044971;28;20205;-72
2022/06/09 05:08:16;;;;;;;3.95;1.50;;;;;;;;;;5047943;28;20647;-72
2022/06/09 05:10:42;;;;;;;2.03;1.35;;;;;;;;;;5045671;28;20190;-72
2022/06/09 05:13:08;;;;;;;2.15;1.30;;;;;;;;;;5044231;28;20173;-72
2022/06/09 05:15:35;;;;;;;3.38;1.20;;;;;;;;;;5042217;28;20340;-71
2022/06/09 05:18:01;;;;;;;3.08;1.38;;;;;;;;;;5040681;28;20273;-73
2022/06/09 05:20:26;;;;;;;3.33;1.50;;;;;;;;;;5040350;28;20265;-72
2022/06/09 05:22:51;;;;;;;3.08;1.23;;;;;;;;;;5051786;28;20204;-73
2022/06/09 05:25:17;;;;;;;2.72;1.27;;;;;;;;;;5045611;28;20205;-73
2022/06/09 05:27:44;;;;;;;3.40;1.50;;;;;;;;;;5046643;28;20289;-72
2022/06/09 05:30:12;;;;;;;4.80;1.42;;;;;;;;;;5045304;28;20183;-72
2022/06/09 05:32:37;;;;;;;3.13;1.35;;;;;;;;;;5043623;28;20667;-72
2022/06/09 05:35:03;;;;;;;4.95;1.58;;;;;;;;;;5046354;28;20198;-72
2022/06/09 05:44:50;;;;;;;3.88;1.38;;;;;;;;;;5051180;28;20196;-73
2022/06/09 05:45:42;;;;;;;7.85;3.05;;;;;;;;;;5045200;28;20702;-72
2022/06/09 05:48:07;;;;;;;4.38;1.45;;;;;;;;;;5040401;28;20181;-72
2022/06/09 05:50:32;;;;;;;1.63;1.33;;;;;;;;;;5047656;28;20204;-72
2022/06/09 05:52:57;;;;;;;5.60;1.75;;;;;;;;;;5049717;28;20639;-72
2022/06/09 05:55:22;;;;;;;3.33;1.20;;;;;;;;;;5043385;28;20736;-72
2022/06/09 05:57:48;;;;;;;3.85;1.23;;;;;;;;;;5046298;28;20188;-72
2022/06/09 06:00:13;;;;;;;3.80;1.15;;;;;;;;;;5042254;28;20240;-72
2022/06/09 06:02:38;;;;;;;4.15;1.08;;;;;;;;;;5039425;28;20183;-72
2022/06/09 06:05:04;;;;;;;1.45;0.80;;;;;;;;;;5045327;28;20205;-72
2022/06/09 06:07:29;;;;;;;5.57;0.82;;;;;;;;;;5046800;28;20263;-72
2022/06/09 06:09:54;;;;;;;1.95;0.90;;;;;;;;;;5046915;28;20596;-72
2022/06/09 06:12:20;;;;;;;1.42;0.60;;;;;;;;;;5046328;28;20195;-72
2022/06/09 06:14:46;;;;;;;2.90;0.88;;;;;;;;;;5043335;28;20716;-72
2022/06/09 06:17:11;;;;;;;2.17;1.33;;;;;;;;;;5045459;28;20186;-71
2022/06/09 06:19:36;;;;;;;2.13;0.90;;;;;;;;;;5048443;28;20562;-73
2022/06/09 06:22:01;;;;;;;2.53;0.90;;;;;;;;;;5049871;28;20569;-73
2022/06/09 06:24:26;;;;;;;2.22;0.93;;;;;;;;;;5051534;28;20176;-73
2022/06/09 06:26:52;;;;;;;2.45;1.40;;;;;;;;;;5048568;28;20275;-70
2022/06/09 06:29:22;;;;;;;3.05;1.13;;;;;;;;;;5043835;28;20181;-71
2022/06/09 06:31:47;;;;;;;4.35;1.40;;;;;;;;;;5041878;28;20200;-71
2022/06/09 06:34:13;;;;;;;1.63;1.27;;;;;;;;;;5038475;28;20643;-73
2022/06/09 06:36:38;;;;;;;1.75;1.02;;;;;;;;;;5048264;28;20202;-73
2022/06/09 06:39:04;;;;;;;2.20;1.35;;;;;;;;;;5043174;28;20651;-73
2022/06/09 06:41:30;;;;;;;2.38;1.30;;;;;;;;;;5048958;28;20675;-73
2022/06/09 06:43:55;;;;;;;2.90;1.10;;;;;;;;;;5045097;28;20181;-70
2022/06/09 06:46:20;;;;;;;4.85;1.50;;;;;;;;;;5043511;28;20245;-73
2022/06/09 06:48:46;;;;;;;3.05;1.70;;;;;;;;;;5042632;28;20628;-72
2022/06/09 06:51:11;;;;;;;2.05;1.42;;;;;;;;;;5040700;28;20181;-71
2022/06/09 06:53:38;;;;;;;3.50;1.10;;;;;;;;;;5037139;28;20173;-72
2022/06/09 06:56:04;;;;;;;5.55;1.73;;;;;;;;;;5036842;28;20224;-72
2022/06/09 06:58:29;;;;;;;2.40;1.48;;;;;;;;;;5030191;28;20174;-72
2022/06/09 07:00:56;;;;;;;6.32;1.90;;;;;;;;;;5034158;28;20189;-71
2022/06/09 07:03:21;;;;;;;2.22;1.70;;;;;;;;;;5036041;28;20561;-72
2022/06/09 07:05:46;;;;;;;2.17;1.52;;;;;;;;;;5035984;28;20202;-72
2022/06/09 07:08:15;;;;;;;4.95;1.92;;;;;;;;;;5045367;28;20227;-71
2022/06/09 07:10:41;;;;;;;3.53;1.60;;;;;;;;;;5037810;28;20266;-71
2022/06/09 07:13:06;;;;;;;3.08;1.83;;;;;;;;;;5037099;28;20181;-72
2022/06/09 07:15:31;;;;;;;3.28;1.98;;;;;;;;;;5035081;28;20197;-72
2022/06/09 07:17:57;;;;;;;2.65;1.80;;;;;;;;;;5044230;28;20552;-72
2022/06/09 07:20:23;;;;;;;3.53;1.83;;;;;;;;;;5044108;28;20191;-72
2022/06/09 07:22:48;;;;;;;2.40;1.77;;;;;;;;;;5042884;28;20559;-72
2022/06/09 07:25:14;;;;;;;3.33;1.70;;;;;;;;;;5036492;28;20205;-72
2022/06/09 07:27:39;;;;;;;2.28;1.52;;;;;;;;;;5044058;28;20230;-72
2022/06/09 07:30:05;;;;;;;4.28;1.70;;;;;;;;;;5041527;28;20174;-72
2022/06/09 07:32:30;;;;;;;3.55;1.35;;;;;;;;;;5049439;28;20174;-72
2022/06/09 07:34:55;;;;;;;3.08;1.90;;;;;;;;;;5040535;28;20273;-72
2022/06/09 07:37:21;;;;;;;2.35;1.90;;;;;;;;;;5034797;28;20182;-72
2022/06/09 07:39:46;;;;;;;4.05;1.90;;;;;;;;;;5040736;28;20558;-72
2022/06/09 07:42:12;;;;;;;2.40;1.50;;;;;;;;;;5053355;28;20574;-72
2022/06/09 07:44:39;;;;;;;3.22;2.00;;;;;;;;;;5052305;28;20177;-71
2022/06/09 07:47:05;;;;;;;1.40;1.08;;;;;;;;;;5055300;28;20193;-72
2022/06/09 07:49:31;;;;;;;2.38;1.50;;;;;;;;;;5050137;28;20169;-72
2022/06/09 07:51:56;;;;;;;5.15;1.60;;;;;;;;;;5049600;28;20635;-72
2022/06/09 07:54:22;;;;;;;4.53;1.80;;;;;;;;;;5050323;28;20679;-72
2022/06/09 07:56:47;;;;;;;3.38;1.83;;;;;;;;;;5041115;28;20201;-72
2022/06/09 07:59:12;;;;;;;6.10;2.15;;;;;;;;;;5038151;28;25549;-72
2022/06/09 08:01:37;;;;;;;1.88;1.60;;;;;;;;;;5019246;28;20182;-72
2022/06/09 08:04:03;;;;;;;3.85;2.10;;;;;;;;;;5022998;28;20236;-72
2022/06/09 08:06:28;;;;;;;2.95;1.52;;;;;;;;;;5024666;28;20619;-71
2022/06/09 08:08:55;;;;;;;3.00;1.60;;;;;;;;;;5022892;28;20185;-71
2022/06/09 08:11:21;;;;;;;4.20;1.88;;;;;;;;;;5028069;28;20190;-72
2022/06/09 08:13:46;;;;;;;7.68;2.20;;;;;;;;;;5021503;28;20659;-71
2022/06/09 08:16:11;;;;;;;4.43;2.00;;;;;;;;;;5026440;28;20325;-72
2022/06/09 08:18:37;;;;;;;3.30;2.00;;;;;;;;;;5023570;28;20174;-72
2022/06/09 08:21:02;;;;;;;3.92;1.83;;;;;;;;;;5026865;28;20223;-70
2022/06/09 08:23:28;;;;;;;5.30;2.03;;;;;;;;;;5025066;28;20178;-72
2022/06/09 08:25:54;;;;;;;6.95;2.03;;;;;;;;;;5026775;28;20214;-70
2022/06/09 08:28:20;;;;;;;6.20;2.97;;;;;;;;;;5025129;28;20184;-72
2022/06/09 08:30:46;;;;;;;4.22;1.85;;;;;;;;;;5025062;28;20174;-71
2022/06/09 08:33:12;;;;;;;10.73;2.55;;;;;;;;;;5030331;28;20529;-72
2022/06/09 08:35:37;;;;;;;6.25;2.30;;;;;;;;;;5024354;28;20300;-71
2022/06/09 08:38:03;;;;;;;4.38;1.75;;;;;;;;;;5023297;28;20212;-72
2022/06/09 08:40:33;;;;;;;6.05;1.95;;;;;;;;;;5025116;28;20552;-71
2022/06/09 08:43:06;;;;;;;5.50;1.92;;;;;;;;;;5032208;28;20201;-71
2022/06/09 08:45:34;;;;;;;4.03;2.10;;;;;;;;;;5027622;28;20202;-72
2022/06/09 08:48:00;;;;;;;6.85;2.17;;;;;;;;;;5023684;28;20204;-72
2022/06/09 08:50:25;;;;;;;3.95;2.10;;;;;;;;;;5023418;28;20186;-72
2022/06/09 08:52:56;;;;;;;4.43;2.10;;;;;;;;;;5024003;28;20178;-71
2022/06/09 08:55:32;;;;;;;4.47;1.90;;;;;;;;;;5027260;28;20194;-71
2022/06/09 08:58:16;;;;;;;3.90;1.95;;;;;;;;;;5026270;28;20177;-71
2022/06/09 09:00:48;;;;;;;3.85;2.55;;;;;;;;;;5023703;28;22058;-71
2022/06/09 09:03:17;;;;;;;3.35;1.85;;;;;;;;;;5026761;28;20564;-71
2022/06/09 09:06:07;;;;;;;8.10;1.80;;;;;;;;;;5025800;28;20702;-71
2022/06/09 09:08:35;;;;;;;5.32;1.55;;;;;;;;;;5022236;28;20668;-71
2022/06/09 09:11:12;;;;;;;3.75;1.30;;;;;;;;;;5024916;28;20192;-71
2022/06/09 09:13:53;;;;;;;5.45;1.45;;;;;;;;;;5023638;28;20300;-71
2022/06/09 09:16:27;;;;;;;7.07;2.03;;;;;;;;;;5026833;28;20252;-71
2022/06/09 09:18:54;;;;;;;3.28;1.50;;;;;;;;;;5022341;28;20197;-71
2022/06/09 09:21:22;;;;;;;6.65;1.17;;;;;;;;;;5025769;28;20232;-70
2022/06/09 09:23:56;;;;;;;3.58;1.10;;;;;;;;;;5025844;28;20900;-71
2022/06/09 09:26:34;;;;;;;3.17;1.27;;;;;;;;;;5024647;28;20233;-71
2022/06/09 09:29:05;;;;;;;4.90;1.20;;;;;;;;;;5024670;28;20584;-71
2022/06/09 09:31:39;;;;;;;5.00;1.35;;;;;;;;;;5023308;28;20193;-70
2022/06/09 09:34:04;;;;;;;2.53;1.00;;;;;;;;;;5022852;28;20304;-71
2022/06/09 09:36:31;;;;;;;3.45;1.15;;;;;;;;;;5026305;28;20202;-70
2022/06/09 09:39:16;;;;;;;6.68;1.70;;;;;;;;;;5025043;28;20535;-71
2022/06/09 09:41:41;;;;;;;6.38;1.20;;;;;;;;;;5016461;28;20322;-70
2022/06/09 09:44:13;;;;;;;5.03;1.48;;;;;;;;;;5019417;28;20186;-72
2022/06/09 09:46:40;;;;;;;4.03;1.10;;;;;;;;;;5025454;28;21921;-71
2022/06/09 09:49:15;;;;;;;5.55;0.85;;;;;;;;;;5017395;28;20778;-71
2022/06/09 09:51:41;;;;;;;2.42;0.90;;;;;;;;;;5025153;28;20769;-71
2022/06/09 09:54:09;;;;;;;3.30;1.08;;;;;;;;;;5022357;28;20183;-71
2022/06/09 09:56:36;;;;;;;4.15;1.00;;;;;;;;;;5026469;28;20691;-71
2022/06/09 09:59:03;;;;;;;4.90;1.20;;;;;;;;;;5023271;28;20180;-71
2022/06/09 10:01:32;;;;;;;5.95;1.20;;;;;;;;;;5022000;28;20200;-72
2022/06/09 10:09:55;;;;;;;2.72;0.82;;;;;;;;;;5021346;28;20213;-70
2022/06/09 10:12:23;;;;;;;3.95;1.45;;;;;;;;;;5028219;28;20652;-72
2022/06/09 10:14:48;;;;;;;4.18;1.10;;;;;;;;;;5023852;28;20667;-70
2022/06/09 10:17:26;;;;;;;4.20;1.35;;;;;;;;;;5022891;28;20272;-69
2022/06/09 10:19:57;;;;;;;10.25;1.67;;;;;;;;;;5025384;28;20237;-70
2022/06/09 10:22:22;;;;;;;4.70;1.75;;;;;;;;;;5022772;28;20216;-70
2022/06/09 10:24:53;;;;;;;6.90;1.63;;;;;;;;;;5022759;28;20747;-70
2022/06/09 10:27:21;;;;;;;5.53;1.25;;;;;;;;;;5024024;28;20208;-70
2022/06/09 10:29:51;;;;;;;4.28;1.17;;;;;;;;;;5023052;28;21107;-70
2022/06/09 10:32:28;;;;;;;5.90;1.10;;;;;;;;;;5022579;28;20328;-69
2022/06/09 10:34:53;;;;;;;3.67;1.30;;;;;;;;;;5022637;28;20604;-69
2022/06/09 10:37:20;;;;;;;3.13;1.20;;;;;;;;;;5031623;28;20190;-69
2022/06/09 10:40:05;;;;;;;4.85;1.25;;;;;;;;;;5020721;28;20173;-70
2022/06/09 10:42:35;;;;;;;5.15;1.58;;;;;;;;;;5020050;28;20443;-68
2022/06/09 10:45:10;;;;;;;8.35;1.70;;;;;;;;;;5020230;28;20213;-70
2022/06/09 10:56:09;;;;;;;6.15;1.25;;;;;;;;;;5021215;28;20201;-70
2022/06/09 10:58:37;;;;;;;5.15;1.60;;;;;;;;;;5021467;28;20213;-70
2022/06/09 11:01:04;;;;;;;4.13;1.13;;;;;;;;;;5022519;28;20174;-70
2022/06/09 11:03:32;;;;;;;5.07;2.25;;;;;;;;;;5020926;28;20663;-69
2022/06/09 11:06:15;;;;;;;8.10;1.33;;;;;;;;;;5023070;28;20201;-70
2022/06/09 11:08:56;;;;;;;5.10;1.13;;;;;;;;;;5025183;28;20189;-70
2022/06/09 11:11:27;;;;;;;4.45;1.27;;;;;;;;;;5031861;28;20189;-70
2022/06/09 11:14:01;;;;;;;3.05;0.82;;;;;;;;;;5022965;28;20201;-71
2022/06/09 11:16:33;;;;;;;6.68;1.48;;;;;;;;;;5024934;28;20201;-71
2022/06/09 11:19:01;;;;;;;5.07;1.38;;;;;;;;;;5024518;28;20566;-69
2022/06/09 11:21:45;;;;;;;4.72;1.20;;;;;;;;;;5024401;28;20193;-71
2022/06/09 11:24:15;;;;;;;5.25;1.50;;;;;;;;;;5024089;28;20813;-71
2022/06/09 11:26:47;;;;;;;4.45;0.88;;;;;;;;;;5022427;28;20232;-73
2022/06/09 11:29:28;;;;;;;5.72;1.50;;;;;;;;;;5023602;28;20178;-70
2022/06/09 11:31:53;;;;;;;2.83;0.90;;;;;;;;;;5021003;28;20178;-71
2022/06/09 11:34:33;;;;;;;4.10;1.30;;;;;;;;;;5026255;28;20650;-72
2022/06/09 11:37:05;;;;;;;5.80;1.52;;;;;;;;;;5020210;28;20189;-72
2022/06/09 11:39:35;;;;;;;3.15;0.90;;;;;;;;;;5021218;28;20205;-72
2022/06/09 11:42:07;;;;;;;6.28;1.20;;;;;;;;;;5026842;28;20220;-72
2022/06/09 11:44:36;;;;;;;3.42;1.38;;;;;;;;;;5028037;28;20193;-72
2022/06/09 11:47:21;;;;;;;5.07;1.13;;;;;;;;;;5026312;28;20605;-72
2022/06/09 11:49:48;;;;;;;5.20;1.48;;;;;;;;;;5019562;28;20186;-72
2022/06/09 11:52:18;;;;;;;4.90;1.38;;;;;;;;;;5021325;28;20221;-72
2022/06/09 11:54:44;;;;;;;3.60;1.05;;;;;;;;;;5020345;28;20657;-72
2022/06/09 11:57:28;;;;;;;5.35;1.40;;;;;;;;;;5020943;28;20825;-72
2022/06/09 11:59:53;;;;;;;6.72;1.65;;;;;;;;;;5020823;28;20231;-72
2022/06/09 12:02:18;;;;;;;3.90;1.25;;;;;;;;;;5017387;28;20185;-72
2022/06/09 12:04:43;;;;;;;6.17;2.67;;;;;;;;;;5020258;28;20209;-72
2022/06/09 12:07:11;;;;;;;5.05;1.73;;;;;;;;;;5020534;28;20209;-72
2022/06/09 12:09:55;;;;;;;5.15;1.35;;;;;;;;;;5021208;28;20208;-72
2022/06/09 12:12:32;;;;;;;5.97;1.13;;;;;;;;;;5026894;28;20212;-72
2022/06/09 12:15:16;;;;;;;4.40;1.45;;;;;;;;;;5027017;28;20200;-72
2022/06/09 12:18:05;;;;;;;3.78;1.40;;;;;;;;;;5022162;28;20182;-72
2022/06/09 12:20:36;;;;;;;5.35;1.65;;;;;;;;;;5027369;28;20200;-73
2022/06/09 12:23:20;;;;;;;4.72;1.58;;;;;;;;;;5025108;28;20613;-72
2022/06/09 12:26:05;;;;;;;5.57;1.35;;;;;;;;;;5020991;28;20206;-72
2022/06/09 12:28:49;;;;;;;5.07;1.00;;;;;;;;;;5024676;28;20910;-72
2022/06/09 12:31:19;;;;;;;5.60;1.27;;;;;;;;;;5026668;28;20746;-72
2022/06/09 12:33:55;;;;;;;8.10;1.65;;;;;;;;;;5023494;28;20207;-73
2022/06/09 12:36:32;;;;;;;7.28;1.40;;;;;;;;;;5024022;28;20205;-72
2022/06/09 12:38:58;;;;;;;8.20;1.77;;;;;;;;;;5025604;28;20180;-72
2022/06/09 12:41:30;;;;;;;4.85;1.25;;;;;;;;;;5031428;28;20173;-72
2022/06/09 12:43:59;;;;;;;5.82;1.92;;;;;;;;;;5027798;28;20181;-72
2022/06/09 12:46:26;;;;;;;5.53;1.63;;;;;;;;;;5029188;28;20425;-72
2022/06/09 12:48:53;;;;;;;4.78;1.25;;;;;;;;;;5026032;28;20206;-72
2022/06/09 12:51:23;;;;;;;7.40;1.30;;;;;;;;;;5026286;28;20212;-72
2022/06/09 12:54:09;;;;;;;6.35;1.60;;;;;;;;;;5024201;28;20213;-72
2022/06/09 12:56:37;;;;;;;4.70;1.70;;;;;;;;;;5019099;28;20257;-72
2022/06/09 12:59:04;;;;;;;5.85;1.30;;;;;;;;;;5026906;28;20301;-72
2022/06/09 13:01:30;;;;;;;7.32;1.67;;;;;;;;;;5021422;28;20186;-72
2022/06/09 13:03:55;;;;;;;5.50;1.58;;;;;;;;;;5035045;28;20206;-71
2022/06/09 13:06:37;;;;;;;2.73;1.40;;;;;;;;;;5041112;28;20201;-72
2022/06/09 13:09:13;;;;;;;6.95;1.67;;;;;;;;;;5040231;28;20924;-72
2022/06/09 13:14:27;;;;;;;7.82;1.88;;;;;;;;;;5026138;28;20228;-72
2022/06/09 13:16:57;;;;;;;4.03;1.40;;;;;;;;;;5026809;28;20625;-72
2022/06/09 13:19:24;;;;;;;5.07;1.73;;;;;;;;;;5022987;28;20190;-72
2022/06/09 13:21:50;;;;;;;7.30;1.48;;;;;;;;;;5022866;28;20192;-72
2022/06/09 13:24:15;;;;;;;4.93;1.65;;;;;;;;;;5024508;28;20593;-72
2022/06/09 13:26:42;;;;;;;7.03;1.67;;;;;;;;;;5028751;28;20202;-72
2022/06/09 13:29:11;;;;;;;5.13;1.55;;;;;;;;;;5027476;28;20197;-72
2022/06/09 13:31:43;;;;;;;6.40;1.35;;;;;;;;;;5028588;28;22365;-72
2022/06/09 13:34:09;;;;;;;5.38;1.10;;;;;;;;;;5024496;28;20335;-72
2022/06/09 13:36:35;;;;;;;7.13;1.30;;;;;;;;;;5023102;28;20825;-71
2022/06/09 13:39:36;;;;;;;4.85;1.35;;;;;;;;;;5026731;28;20750;-72
2022/06/09 13:42:01;;;;;;;5.13;1.20;;;;;;;;;;5017142;28;20193;-71
2022/06/09 13:44:30;;;;;;;7.47;1.57;;;;;;;;;;5023804;28;20229;-72
2022/06/09 13:47:01;;;;;;;5.45;1.20;;;;;;;;;;5021943;28;20485;-72
2022/06/09 13:49:28;;;;;;;5.30;1.52;;;;;;;;;;5021000;28;20840;-72
2022/06/09 13:52:21;;;;;;;6.72;1.63;;;;;;;;;;5033937;28;20178;-72
2022/06/09 13:54:48;;;;;;;8.43;2.33;;;;;;;;;;5023841;28;20709;-72
2022/06/09 13:57:21;;;;;;;5.85;1.38;;;;;;;;;;5021661;28;20785;-72
2022/06/09 13:59:47;;;;;;;3.92;1.58;;;;;;;;;;5024026;28;20173;-72
2022/06/09 14:02:14;;;;;;;10.07;1.40;;;;;;;;;;5025152;28;20519;-73
2022/06/09 14:04:39;;;;;;;4.45;1.65;;;;;;;;;;5020371;28;20549;-74
2022/06/09 14:07:04;;;;;;;4.83;1.77;;;;;;;;;;5030297;28;20213;-73
2022/06/09 14:09:30;;;;;;;4.07;1.30;;;;;;;;;;5045262;28;20442;-72
2022/06/09 14:11:55;;;;;;;6.15;1.42;;;;;;;;;;5047140;28;20454;-72
2022/06/09 14:14:20;;;;;;;6.72;2.40;;;;;;;;;;5032443;28;20183;-72
2022/06/09 14:16:47;;;;;;;6.07;1.33;;;;;;;;;;5051700;28;20208;-72
2022/06/09 14:19:14;;;;;;;4.18;1.10;;;;;;;;;;5041220;28;20226;-72
2022/06/09 14:21:40;;;;;;;6.32;1.50;;;;;;;;;;5040814;28;20181;-72
2022/06/09 14:24:12;;;;;;;6.45;1.63;;;;;;;;;;5026253;28;21116;-72
2022/06/09 14:26:37;;;;;;;6.70;1.90;;;;;;;;;;5021506;28;20229;-72
2022/06/09 14:29:04;;;;;;;8.38;1.67;;;;;;;;;;5020786;28;20590;-72
2022/06/09 14:31:29;;;;;;;6.55;1.70;;;;;;;;;;5020287;28;20675;-72
2022/06/09 14:33:55;;;;;;;5.13;1.73;;;;;;;;;;5025169;28;20193;-72
2022/06/09 14:36:21;;;;;;;4.72;1.60;;;;;;;;;;5023671;28;20458;-72
2022/06/09 14:38:47;;;;;;;5.13;1.63;;;;;;;;;;5020837;28;20190;-72
2022/06/09 14:41:13;;;;;;;5.65;1.27;;;;;;;;;;5023041;28;20208;-72
2022/06/09 14:43:38;;;;;;;6.65;1.67;;;;;;;;;;5023892;28;20178;-72
2022/06/09 14:46:04;;;;;;;4.53;1.10;;;;;;;;;;5025114;28;20302;-72
2022/06/09 14:48:30;;;;;;;5.25;1.45;;;;;;;;;;5020521;28;20180;-72
2022/06/09 14:50:55;;;;;;;8.68;1.90;;;;;;;;;;5022211;28;20177;-71
2022/06/09 14:53:21;;;;;;;9.32;1.50;;;;;;;;;;5019201;28;20194;-72
2022/06/09 14:55:47;;;;;;;3.42;1.27;;;;;;;;;;5020852;28;20217;-72
2022/06/09 14:58:13;;;;;;;5.28;1.10;;;;;;;;;;5022843;28;20184;-72
2022/06/09 15:00:38;;;;;;;4.32;1.42;;;;;;;;;;5020958;28;20546;-72
2022/06/09 15:03:03;;;;;;;7.85;1.60;;;;;;;;;;5017949;28;20182;-72
2022/06/09 15:05:29;;;;;;;7.97;2.27;;;;;;;;;;5023871;28;20676;-72
2022/06/09 15:07:54;;;;;;;5.97;1.02;;;;;;;;;;5020306;28;20470;-72
2022/06/09 15:10:24;;;;;;;8.27;1.77;;;;;;;;;;5021332;28;20204;-73